createdAt,value
2022-09-28T00:02:36.567Z,1.63
2022-09-28T00:05:39.908Z,3.28
2022-09-28T00:08:43.310Z,2.50
2022-09-28T00:11:47.055Z,1.70
2022-09-28T00:14:50.315Z,2.13
2022-09-28T00:17:55.098Z,2.53
2022-09-28T00:21:03.422Z,2.38
2022-09-28T00:24:15.910Z,2.33
2022-09-28T00:27:19.188Z,1.70
2022-09-28T00:30:22.279Z,1.80
2022-09-28T00:33:27.143Z,2.35
2022-09-28T00:36:31.766Z,2.00
2022-09-28T00:39:35.958Z,1.45
2022-09-28T00:42:42.829Z,2.58
2022-09-28T00:45:46.487Z,2.50
2022-09-28T00:48:56.962Z,3.15
2022-09-28T00:52:01.083Z,1.52
2022-09-28T00:55:08.588Z,2.28
2022-09-28T00:58:15.810Z,2.45
2022-09-28T01:01:19.160Z,1.77
2022-09-28T01:04:28.044Z,2.53
2022-09-28T01:07:33.910Z,2.75
2022-09-28T01:10:37.104Z,2.15
2022-09-28T01:13:42.381Z,1.70
2022-09-28T01:16:56.284Z,1.97
2022-09-28T01:20:41.941Z,1.77
2022-09-28T01:24:11.873Z,2.08
2022-09-28T01:27:26.673Z,2.05
2022-09-28T01:30:37.643Z,1.90
2022-09-28T01:33:46.055Z,1.90
2022-09-28T01:36:53.238Z,2.53
2022-09-28T01:39:59.479Z,2.63
2022-09-28T01:43:07.018Z,2.90
2022-09-28T01:46:14.891Z,2.30
2022-09-28T01:49:22.301Z,1.80
2022-09-28T01:52:29.506Z,1.95
2022-09-28T01:55:36.073Z,1.92
2022-09-28T01:58:47.811Z,2.17
2022-09-28T02:01:55.583Z,1.60
2022-09-28T02:05:03.239Z,1.60
2022-09-28T02:08:10.840Z,1.83
2022-09-28T02:11:16.099Z,1.23
2022-09-28T02:14:21.760Z,1.50
2022-09-28T02:17:26.376Z,1.90
2022-09-28T02:20:32.854Z,1.43
2022-09-28T02:23:40.798Z,1.90
2022-09-28T02:26:48.652Z,1.58
2022-09-28T02:29:53.261Z,1.63
2022-09-28T02:33:00.168Z,1.55
2022-09-28T02:36:04.522Z,1.30
2022-09-28T02:39:16.319Z,2.25
2022-09-28T02:42:23.682Z,1.13
2022-09-28T02:45:42.478Z,1.60
2022-09-28T02:49:20.166Z,1.08
2022-09-28T02:52:42.646Z,1.33
2022-09-28T02:56:01.933Z,1.55
2022-09-28T02:59:15.371Z,1.67
2022-09-28T03:02:29.236Z,1.88
2022-09-28T03:05:42.550Z,1.33
2022-09-28T03:08:53.938Z,1.47
2022-09-28T03:12:01.984Z,1.98
2022-09-28T03:15:10.568Z,1.83
2022-09-28T03:18:15.132Z,1.63
2022-09-28T03:21:18.582Z,1.70
2022-09-28T03:24:21.533Z,2.27
2022-09-28T03:27:24.794Z,1.92
2022-09-28T03:30:28.079Z,1.52
2022-09-28T03:33:33.038Z,1.20
2022-09-28T03:36:35.972Z,1.40
2022-09-28T03:39:39.493Z,2.37
2022-09-28T03:42:44.086Z,2.72
2022-09-28T03:45:52.934Z,3.03
2022-09-28T03:48:59.179Z,2.30
2022-09-28T03:52:03.081Z,1.60
2022-09-28T03:55:06.814Z,2.37
2022-09-28T03:58:10.053Z,2.00
2022-09-28T04:01:17.241Z,1.38
2022-09-28T04:04:23.940Z,1.67
2022-09-28T04:07:30.904Z,1.58
2022-09-28T04:10:35.035Z,1.40
2022-09-28T04:13:38.230Z,2.22
2022-09-28T04:16:43.791Z,2.00
2022-09-28T04:19:51.731Z,1.67
2022-09-28T04:23:21.450Z,1.33
2022-09-28T04:26:25.719Z,1.83
2022-09-28T04:29:28.041Z,1.88
2022-09-28T04:32:32.998Z,1.48
2022-09-28T04:35:37.979Z,1.38
2022-09-28T04:38:52.723Z,1.48
2022-09-28T04:41:58.208Z,1.90
2022-09-28T04:45:02.269Z,1.52
2022-09-28T04:48:07.494Z,1.75
2022-09-28T04:51:36.541Z,1.73
2022-09-28T04:54:40.049Z,1.42
2022-09-28T04:57:43.132Z,1.53
2022-09-28T05:00:46.532Z,3.20
2022-09-28T05:04:07.120Z,2.08
2022-09-28T05:07:24.018Z,1.80
2022-09-28T05:10:26.965Z,1.65
2022-09-28T05:13:31.394Z,2.03
2022-09-28T05:16:35.906Z,3.22
2022-09-28T05:19:57.496Z,1.35
2022-09-28T05:23:01.825Z,1.73
2022-09-28T05:26:05.076Z,1.60
2022-09-28T05:29:07.917Z,1.23
2022-09-28T05:32:16.820Z,2.30
2022-09-28T05:35:49.765Z,1.92
2022-09-28T05:38:57.699Z,1.70
2022-09-28T05:42:00.773Z,1.90
2022-09-28T05:45:06.410Z,1.47
2022-09-28T05:48:09.650Z,1.63
2022-09-28T05:51:12.859Z,2.50
2022-09-28T05:54:17.485Z,2.53
2022-09-28T05:57:22.886Z,3.45
2022-09-28T06:00:26.078Z,2.60
2022-09-28T06:03:31.780Z,3.17
2022-09-28T06:06:35.646Z,4.30
2022-09-28T06:09:40.059Z,2.80
2022-09-28T06:13:07.970Z,1.88
2022-09-28T06:16:15.583Z,5.03
2022-09-28T06:19:19.497Z,5.97
2022-09-28T06:22:52.771Z,3.88
2022-09-28T06:25:56.984Z,2.38
2022-09-28T06:29:00.500Z,1.48
2022-09-28T06:32:03.403Z,1.83
2022-09-28T06:35:08.734Z,1.83
2022-09-28T06:38:12.035Z,2.10
2022-09-28T06:41:16.704Z,2.78
2022-09-28T06:44:21.266Z,1.92
2022-09-28T06:47:44.674Z,3.40
2022-09-28T06:50:57.542Z,2.60
2022-09-28T06:54:04.913Z,1.98
2022-09-28T06:57:26.052Z,1.83
2022-09-28T07:00:31.149Z,2.35
2022-09-28T07:03:34.132Z,4.60
2022-09-28T07:06:56.630Z,3.97
2022-09-28T07:10:18.407Z,4.05
2022-09-28T07:13:50.581Z,2.55
2022-09-28T07:17:12.450Z,3.00
2022-09-28T07:20:19.332Z,4.57
2022-09-28T07:23:27.404Z,1.77
2022-09-28T07:26:56.830Z,2.75
2022-09-28T07:30:20.214Z,2.83
2022-09-28T07:33:36.568Z,2.20
2022-09-28T07:36:58.991Z,3.57
2022-09-28T07:40:20.856Z,2.10
2022-09-28T07:43:23.951Z,2.33
2022-09-28T07:46:31.018Z,1.52
2022-09-28T07:49:38.717Z,2.55
2022-09-28T07:52:50.998Z,4.50
2022-09-28T07:56:08.760Z,1.83
2022-09-28T07:59:19.301Z,3.35
2022-09-28T08:02:49.956Z,2.13
2022-09-28T08:06:01.805Z,2.10
2022-09-28T08:09:05.126Z,3.47
2022-09-28T08:12:26.836Z,2.63
2022-09-28T08:15:38.456Z,1.60
2022-09-28T08:18:55.359Z,2.28
2022-09-28T08:21:57.188Z,2.42
2022-09-28T08:25:00.244Z,3.87
2022-09-28T08:28:03.475Z,3.60
2022-09-28T08:31:09.560Z,3.60
2022-09-28T08:34:32.137Z,4.72
2022-09-28T08:38:03.378Z,4.10
2022-09-28T08:41:41.206Z,1.90
2022-09-28T08:45:10.407Z,2.40
2022-09-28T08:48:56.323Z,2.05
2022-09-28T08:52:27.086Z,4.85
2022-09-28T08:55:40.716Z,3.55
2022-09-28T08:58:48.817Z,1.97
2022-09-28T09:01:59.682Z,1.90
2022-09-28T09:05:06.547Z,2.13
2022-09-28T09:08:35.727Z,2.92
2022-09-28T09:11:52.328Z,3.38
2022-09-28T09:15:22.909Z,2.57
2022-09-28T09:18:36.756Z,2.28
2022-09-28T09:22:00.567Z,2.13
2022-09-28T09:25:19.176Z,1.63
2022-09-28T09:29:03.810Z,2.17
2022-09-28T09:32:36.868Z,2.17
2022-09-28T09:35:55.263Z,1.77
2022-09-28T09:39:13.538Z,2.03
2022-09-28T09:42:53.942Z,1.52
2022-09-28T09:46:29.475Z,2.38
2022-09-28T09:49:56.572Z,1.67
2022-09-28T09:53:03.436Z,1.38
2022-09-28T09:56:13.471Z,2.53
2022-09-28T09:59:38.771Z,1.95
2022-09-28T10:02:58.213Z,1.35
2022-09-28T10:06:14.967Z,1.60
2022-09-28T10:09:24.837Z,2.25
2022-09-28T10:12:28.064Z,1.50
2022-09-28T10:15:36.410Z,2.45
2022-09-28T10:18:54.237Z,2.03
2022-09-28T10:22:22.202Z,1.23
2022-09-28T10:25:26.074Z,0.98
2022-09-28T10:28:36.607Z,1.00
2022-09-28T10:31:43.640Z,2.85
2022-09-28T10:34:54.966Z,1.70
2022-09-28T10:38:08.116Z,1.60
2022-09-28T10:41:32.244Z,1.23
2022-09-28T10:44:52.517Z,1.75
2022-09-28T10:48:18.825Z,2.03
2022-09-28T10:51:40.140Z,2.80
2022-09-28T10:54:54.098Z,1.67
2022-09-28T10:57:59.627Z,1.00
2022-09-28T11:01:14.553Z,1.48
2022-09-28T11:04:22.704Z,1.10
2022-09-28T11:07:30.742Z,1.30
2022-09-28T11:10:34.815Z,2.83
2022-09-28T11:13:47.905Z,1.38
2022-09-28T11:17:16.031Z,1.00
2022-09-28T11:20:33.520Z,1.45
2022-09-28T11:23:38.831Z,2.25
2022-09-28T11:26:56.365Z,1.00
2022-09-28T11:30:02.117Z,0.98
2022-09-28T11:33:19.184Z,1.17
2022-09-28T11:37:06.504Z,1.25
2022-09-28T11:40:24.134Z,1.25
2022-09-28T11:43:46.050Z,2.30
2022-09-28T11:46:58.322Z,1.10
2022-09-28T11:50:07.474Z,2.58
2022-09-28T11:53:21.979Z,1.25
2022-09-28T11:56:35.774Z,2.00
2022-09-28T11:59:44.275Z,1.10
2022-09-28T12:02:53.010Z,1.45
2022-09-28T12:06:03.227Z,1.17
2022-09-28T12:09:14.044Z,2.47
2022-09-28T12:12:33.337Z,1.02
2022-09-28T12:16:13.275Z,0.83
2022-09-28T12:19:17.722Z,1.20
2022-09-28T12:22:25.675Z,1.30
2022-09-28T12:25:37.699Z,1.67
2022-09-28T12:28:46.945Z,0.90
2022-09-28T12:32:04.545Z,1.30
2022-09-28T12:35:14.187Z,1.00
2022-09-28T12:38:33.555Z,1.92
2022-09-28T12:41:50.023Z,1.10
2022-09-28T12:45:17.395Z,1.45
2022-09-28T12:48:37.270Z,1.27
2022-09-28T12:51:48.412Z,1.95
2022-09-28T12:55:15.645Z,1.52
2022-09-28T12:58:44.697Z,1.80
2022-09-28T13:02:02.441Z,0.93
2022-09-28T13:05:30.071Z,1.03
2022-09-28T13:08:44.340Z,1.10
2022-09-28T13:11:56.677Z,1.48
2022-09-28T13:15:32.046Z,1.17
2022-09-28T13:18:42.172Z,0.93
2022-09-28T13:21:55.275Z,0.83
2022-09-28T13:25:04.259Z,0.70
2022-09-28T13:28:08.282Z,1.20
2022-09-28T13:31:18.799Z,1.00
2022-09-28T13:34:25.271Z,1.50
2022-09-28T13:37:28.141Z,1.07
2022-09-28T13:41:04.640Z,2.55
2022-09-28T13:44:34.025Z,2.00
2022-09-28T13:47:57.709Z,1.50
2022-09-28T13:51:18.652Z,1.45
2022-09-28T13:54:38.191Z,1.23
2022-09-28T13:57:47.592Z,1.25
2022-09-28T14:00:54.826Z,1.65
2022-09-28T14:04:14.816Z,2.63
2022-09-28T14:07:23.386Z,1.48
2022-09-28T14:10:49.154Z,1.40
2022-09-28T14:13:59.859Z,1.17
2022-09-28T14:17:51.109Z,1.60
2022-09-28T14:21:12.424Z,1.15
2022-09-28T14:24:27.512Z,1.63
2022-09-28T14:27:49.432Z,2.03
2022-09-28T14:30:58.970Z,1.67
2022-09-28T14:34:04.557Z,1.33
2022-09-28T14:37:40.842Z,2.35
2022-09-28T14:41:12.658Z,1.73
2022-09-28T14:44:17.171Z,1.23
2022-09-28T14:47:35.295Z,1.98
2022-09-28T14:50:38.999Z,1.10
2022-09-28T14:53:43.590Z,1.00
2022-09-28T14:57:08.030Z,2.13
2022-09-28T15:00:20.254Z,2.63
2022-09-28T15:03:24.881Z,2.10
2022-09-28T15:06:44.508Z,2.67
2022-09-28T15:09:51.437Z,1.90
2022-09-28T15:12:56.050Z,2.78
2022-09-28T15:16:04.539Z,2.90
2022-09-28T15:19:20.944Z,2.28
2022-09-28T15:22:23.890Z,4.15
2022-09-28T15:25:29.979Z,5.50
2022-09-28T15:28:35.712Z,3.33
2022-09-28T15:31:39.250Z,2.70
2022-09-28T15:34:56.828Z,2.35
2022-09-28T15:38:00.318Z,2.40
2022-09-28T15:41:07.563Z,2.92
2022-09-28T15:44:30.374Z,2.75
2022-09-28T15:47:38.695Z,2.37
2022-09-28T15:50:53.589Z,2.65
2022-09-28T15:54:00.060Z,2.80
2022-09-28T15:57:04.593Z,3.85
2022-09-28T16:00:28.132Z,1.58
2022-09-28T16:03:31.360Z,1.60
2022-09-28T16:06:34.271Z,2.22
2022-09-28T16:09:54.588Z,2.47
2022-09-28T16:13:08.506Z,2.25
2022-09-28T16:16:16.252Z,2.10
2022-09-28T16:19:25.028Z,1.50
2022-09-28T16:22:29.003Z,1.92
2022-09-28T16:25:32.480Z,3.03
2022-09-28T16:28:51.890Z,1.52
2022-09-28T16:31:55.600Z,1.63
2022-09-28T16:35:20.280Z,2.10
2022-09-28T16:38:23.183Z,2.03
2022-09-28T16:41:28.854Z,2.78
2022-09-28T16:44:34.904Z,3.13
2022-09-28T16:47:39.373Z,2.03
2022-09-28T16:50:42.431Z,2.30
2022-09-28T16:54:03.658Z,2.55
2022-09-28T16:57:09.829Z,2.25
2022-09-28T17:00:22.979Z,1.98
2022-09-28T17:03:26.891Z,1.85
2022-09-28T17:06:29.927Z,4.90
2022-09-28T17:57:10.291Z,1.45
2022-09-28T18:00:14.446Z,2.50
2022-09-28T18:03:20.254Z,3.05
2022-09-28T18:06:23.724Z,3.30
2022-09-28T18:09:26.649Z,1.10
2022-09-28T18:12:31.398Z,1.23
2022-09-28T18:15:34.463Z,1.43
2022-09-28T18:18:39.742Z,1.15
2022-09-28T18:21:42.676Z,2.10
2022-09-28T18:24:45.911Z,1.23
2022-09-28T18:27:50.196Z,1.50
2022-09-28T18:30:53.574Z,2.13
2022-09-28T18:34:00.699Z,1.77
2022-09-28T18:37:04.600Z,2.95
2022-09-28T18:40:10.317Z,2.00
2022-09-28T18:43:16.675Z,1.30
2022-09-28T18:46:20.273Z,1.67
2022-09-28T18:49:24.259Z,1.75
2022-09-28T18:52:27.427Z,1.10
2022-09-28T18:55:31.209Z,2.25
2022-09-28T18:58:37.310Z,1.10
2022-09-28T19:01:41.878Z,1.60
2022-09-28T19:04:45.264Z,1.50
2022-09-28T19:07:48.555Z,2.10
2022-09-28T19:10:51.761Z,1.30
2022-09-28T19:13:56.855Z,2.58
2022-09-28T19:17:00.232Z,2.10
2022-09-28T19:20:03.639Z,1.52
2022-09-28T19:23:06.982Z,2.17
2022-09-28T19:26:14.600Z,1.38
2022-09-28T19:29:19.045Z,2.17
2022-09-28T19:32:22.402Z,1.73
2022-09-28T19:35:25.380Z,2.35
2022-09-28T19:38:30.131Z,2.58
2022-09-28T19:41:44.293Z,1.80
2022-09-28T19:44:49.285Z,1.90
2022-09-28T19:47:55.094Z,1.37
2022-09-28T19:51:02.823Z,2.17
2022-09-28T19:54:07.326Z,2.67
2022-09-28T19:57:11.560Z,1.45
2022-09-28T20:00:17.170Z,5.75
2022-09-28T20:03:20.942Z,2.43
2022-09-28T20:06:24.512Z,2.03
2022-09-28T20:09:27.631Z,2.38
2022-09-28T20:12:30.727Z,2.05
2022-09-28T20:15:37.781Z,2.65
2022-09-28T20:18:44.139Z,1.87
2022-09-28T20:21:48.155Z,3.92
2022-09-28T20:24:51.084Z,2.97
2022-09-28T20:29:59.137Z,4.75
2022-09-28T20:34:46.960Z,3.03
2022-09-28T20:41:10.851Z,3.27
2022-09-28T20:44:14.062Z,2.70
2022-09-28T20:47:17.108Z,3.40
2022-09-28T20:50:20.261Z,4.45
2022-09-28T20:53:23.514Z,4.45
2022-09-28T20:56:34.469Z,2.67
2022-09-28T20:59:37.611Z,4.07
2022-09-28T21:02:40.763Z,2.03
2022-09-28T21:05:43.865Z,2.63
2022-09-28T21:08:47.610Z,2.97
2022-09-28T21:11:52.143Z,2.37
2022-09-28T21:14:55.287Z,2.67
2022-09-28T21:17:58.208Z,2.63
2022-09-28T21:21:01.278Z,2.10
2022-09-28T21:24:04.745Z,2.75
2022-09-28T21:27:09.218Z,2.83
2022-09-28T21:30:13.433Z,3.05
2022-09-28T21:33:17.855Z,3.72
2022-09-28T21:36:20.950Z,2.90
2022-09-28T21:39:24.113Z,2.78
2022-09-28T21:42:28.409Z,3.03
2022-09-28T21:45:32.866Z,3.30
2022-09-28T21:48:35.802Z,2.80
2022-09-28T21:51:39.214Z,3.25
2022-09-28T21:54:42.533Z,3.20
2022-09-28T21:57:48.291Z,2.57
2022-09-28T22:00:58.166Z,3.85
2022-09-28T22:04:02.403Z,7.20
2022-09-28T22:07:05.532Z,3.08
2022-09-28T22:10:12.596Z,3.58
2022-09-28T22:13:17.545Z,3.10
2022-09-28T22:16:23.367Z,4.55
2022-09-28T22:19:27.507Z,6.07
2022-09-28T22:22:31.389Z,2.72
2022-09-28T22:25:34.501Z,4.13
2022-09-28T22:28:40.700Z,5.67
2022-09-28T22:31:46.784Z,4.45
2022-09-28T22:34:51.991Z,3.67
2022-09-28T22:37:54.994Z,3.88
2022-09-28T22:40:58.727Z,4.30
2022-09-28T22:44:03.319Z,4.97
2022-09-28T22:47:06.831Z,4.38
2022-09-28T22:50:10.310Z,3.25
2022-09-28T22:53:14.089Z,3.35
2022-09-28T22:56:18.992Z,3.35
2022-09-28T22:59:24.315Z,5.70
2022-09-28T23:02:27.407Z,5.68
2022-09-28T23:05:30.775Z,4.35
2022-09-28T23:08:34.745Z,4.75
2022-09-28T23:11:38.224Z,5.10
2022-09-28T23:14:42.517Z,5.57
2022-09-28T23:17:45.738Z,4.53
2022-09-28T23:20:54.372Z,9.38
2022-09-28T23:24:00.968Z,7.07
2022-09-28T23:27:04.090Z,8.77
2022-09-28T23:30:10.967Z,5.77
2022-09-28T23:33:14.757Z,5.07
2022-09-28T23:36:18.329Z,6.78
2022-09-28T23:39:21.392Z,5.32
2022-09-28T23:42:24.735Z,4.65
2022-09-28T23:45:29.004Z,5.93
2022-09-28T23:48:32.733Z,5.28
2022-09-28T23:51:35.775Z,4.60
2022-09-28T23:54:39.709Z,8.32
2022-09-28T23:57:44.145Z,4.50
